KAX387 KHYA-KMCI
Flight info
| Callsign | KAX387 |
|---|---|
| Flight time | N/A |
| Altitude | 28000 |
| Route | LFV CELTS BAF Q480 AIR/N0316F300 J80 SPI BQS8 |
| Aircraft | TBM9/L-SDFGRWY/S |
Departure
| Time | 2026-04-19 10:17 |
|---|---|
| Airport | Cape Cod Gateway Airport (KHYA) |
Arrival
| Time | N/A |
|---|---|
| Airport | Kansas City International Airport (KMCI) |
| Time | Latitude | Longitude | Altitude | Speed | Heading |
|---|---|---|---|---|---|
| 2026-04-19 09:56 | 41.66557 | -70.27569 | 56 ft | 0 kts | 326° |
| 2026-04-19 10:09 | 41.66566 | -70.27578 | 56 ft | 7 kts | 318° |
| 2026-04-19 10:10 | 41.66590 | -70.27648 | 56 ft | 10 kts | 266° |
| 2026-04-19 10:10 | 41.66561 | -70.27736 | 53 ft | 11 kts | 232° |
| 2026-04-19 10:10 | 41.66512 | -70.27824 | 56 ft | 13 kts | 245° |
| 2026-04-19 10:10 | 41.66457 | -70.27925 | 54 ft | 15 kts | 229° |
| 2026-04-19 10:11 | 41.66383 | -70.28043 | 54 ft | 16 kts | 230° |
| 2026-04-19 10:11 | 41.66376 | -70.28141 | 55 ft | 13 kts | 321° |
| 2026-04-19 10:11 | 41.66451 | -70.28224 | 53 ft | 16 kts | 321° |
| 2026-04-19 10:11 | 41.66537 | -70.28321 | 56 ft | 16 kts | 321° |
| 2026-04-19 10:12 | 41.66624 | -70.28418 | 55 ft | 17 kts | 319° |
| 2026-04-19 10:12 | 41.66716 | -70.28523 | 56 ft | 18 kts | 320° |
| 2026-04-19 10:12 | 41.66818 | -70.28637 | 56 ft | 20 kts | 319° |
| 2026-04-19 10:12 | 41.66926 | -70.28759 | 56 ft | 19 kts | 322° |
| 2026-04-19 10:13 | 41.67029 | -70.28875 | 56 ft | 20 kts | 319° |
| 2026-04-19 10:13 | 41.67136 | -70.28995 | 56 ft | 21 kts | 320° |
| 2026-04-19 10:13 | 41.67241 | -70.29115 | 56 ft | 20 kts | 320° |
| 2026-04-19 10:13 | 41.67349 | -70.29237 | 57 ft | 18 kts | 321° |
| 2026-04-19 10:14 | 41.67414 | -70.29276 | 57 ft | 6 kts | 46° |
| 2026-04-19 10:14 | 41.67418 | -70.29270 | 57 ft | 0 kts | 50° |
| 2026-04-19 10:16 | 41.67445 | -70.29228 | 58 ft | 12 kts | 48° |
| 2026-04-19 10:16 | 41.67468 | -70.29174 | 59 ft | 0 kts | 138° |
| 2026-04-19 10:16 | 41.67423 | -70.29124 | 58 ft | 33 kts | 141° |
| 2026-04-19 10:17 | 41.67087 | -70.28746 | 55 ft | 91 kts | 141° |
| 2026-04-19 10:17 | 41.66528 | -70.28101 | 300 ft | 110 kts | 142° |
| 2026-04-19 10:17 | 41.65962 | -70.27437 | 785 ft | 107 kts | 142° |
| 2026-04-19 10:17 | 41.65387 | -70.26787 | 1204 ft | 111 kts | 143° |
| 2026-04-19 10:18 | 41.64793 | -70.26087 | 1700 ft | 117 kts | 134° |
| 2026-04-19 10:18 | 41.64454 | -70.25067 | 2185 ft | 126 kts | 101° |
| 2026-04-19 10:18 | 41.64536 | -70.23850 | 2623 ft | 137 kts | 75° |
| 2026-04-19 10:19 | 41.65654 | -70.21818 | 3628 ft | 138 kts | 36° |
| 2026-04-19 10:19 | 41.66489 | -70.21200 | 4099 ft | 139 kts | 9° |
| 2026-04-19 10:19 | 41.67420 | -70.21332 | 4559 ft | 135 kts | 327° |
| 2026-04-19 10:19 | 41.68162 | -70.22086 | 4956 ft | 138 kts | 314° |
| 2026-04-19 10:20 | 41.68805 | -70.22966 | 5557 ft | 131 kts | 307° |
| 2026-04-19 10:20 | 41.69392 | -70.23918 | 6028 ft | 134 kts | 309° |
| 2026-04-19 10:20 | 41.70061 | -70.24773 | 6550 ft | 133 kts | 313° |
| 2026-04-19 10:20 | 41.70757 | -70.25596 | 7016 ft | 134 kts | 316° |
| 2026-04-19 10:21 | 41.71478 | -70.26407 | 7491 ft | 136 kts | 317° |
| 2026-04-19 10:21 | 41.72212 | -70.27218 | 7958 ft | 137 kts | 317° |
| 2026-04-19 10:21 | 41.72947 | -70.28022 | 8396 ft | 139 kts | 317° |
| 2026-04-19 10:21 | 41.73697 | -70.28846 | 8845 ft | 141 kts | 318° |
| 2026-04-19 10:22 | 41.74481 | -70.29700 | 9268 ft | 147 kts | 318° |
| 2026-04-19 10:22 | 41.75308 | -70.30604 | 9529 ft | 165 kts | 319° |
| 2026-04-19 10:22 | 41.76269 | -70.31648 | 9600 ft | 190 kts | 319° |
| 2026-04-19 10:22 | 41.77230 | -70.32690 | 9836 ft | 198 kts | 320° |
| 2026-04-19 10:23 | 41.78301 | -70.33860 | 10236 ft | 199 kts | 319° |
| 2026-04-19 10:23 | 41.79373 | -70.35040 | 10610 ft | 200 kts | 319° |
| 2026-04-19 10:23 | 41.80444 | -70.36218 | 10989 ft | 202 kts | 319° |
| 2026-04-19 10:23 | 41.81536 | -70.37417 | 11369 ft | 204 kts | 319° |
| 2026-04-19 10:24 | 41.82637 | -70.38625 | 11748 ft | 205 kts | 319° |
| 2026-04-19 10:24 | 41.83745 | -70.39843 | 12132 ft | 206 kts | 318° |
| 2026-04-19 10:24 | 41.84862 | -70.41071 | 12524 ft | 208 kts | 318° |
| 2026-04-19 10:24 | 41.85981 | -70.42302 | 12907 ft | 209 kts | 318° |
| 2026-04-19 10:25 | 41.86728 | -70.43123 | 13177 ft | 210 kts | 317° |
| 2026-04-19 10:25 | 41.87173 | -70.43614 | 13327 ft | 210 kts | 317° |
| 2026-04-19 10:25 | 41.88295 | -70.44848 | 13694 ft | 211 kts | 317° |
| 2026-04-19 10:25 | 41.89424 | -70.46091 | 14040 ft | 213 kts | 317° |
| 2026-04-19 10:26 | 41.90573 | -70.47356 | 14390 ft | 214 kts | 317° |
| 2026-04-19 10:26 | 41.91725 | -70.48626 | 14746 ft | 215 kts | 317° |
| 2026-04-19 10:26 | 41.92883 | -70.49904 | 15126 ft | 216 kts | 317° |
| 2026-04-19 10:26 | 41.94049 | -70.51190 | 15495 ft | 217 kts | 317° |
| 2026-04-19 10:27 | 41.95219 | -70.52481 | 15866 ft | 218 kts | 317° |
| 2026-04-19 10:27 | 41.96394 | -70.53778 | 16246 ft | 219 kts | 317° |
| 2026-04-19 10:27 | 41.97576 | -70.55085 | 16625 ft | 220 kts | 317° |
| 2026-04-19 10:27 | 41.98760 | -70.56394 | 17006 ft | 221 kts | 317° |
| 2026-04-19 10:28 | 41.99950 | -70.57710 | 17383 ft | 222 kts | 317° |
| 2026-04-19 10:28 | 42.01147 | -70.59034 | 17765 ft | 223 kts | 317° |
| 2026-04-19 10:28 | 42.02347 | -70.60363 | 18142 ft | 224 kts | 317° |
| 2026-04-19 10:28 | 42.03553 | -70.61699 | 18480 ft | 225 kts | 318° |
| 2026-04-19 10:29 | 42.04751 | -70.63026 | 18802 ft | 226 kts | 317° |
| 2026-04-19 10:29 | 42.05968 | -70.64376 | 19130 ft | 227 kts | 317° |
| 2026-04-19 10:29 | 42.07191 | -70.65732 | 19457 ft | 228 kts | 317° |
| 2026-04-19 10:29 | 42.08418 | -70.67095 | 19787 ft | 229 kts | 318° |
| 2026-04-19 10:30 | 42.09653 | -70.68466 | 20115 ft | 230 kts | 318° |
| 2026-04-19 10:30 | 42.10888 | -70.69838 | 20443 ft | 231 kts | 318° |
| 2026-04-19 10:30 | 42.12118 | -70.71205 | 20769 ft | 232 kts | 317° |
| 2026-04-19 10:30 | 42.13368 | -70.72596 | 21097 ft | 233 kts | 318° |
| 2026-04-19 10:31 | 42.14625 | -70.73994 | 21430 ft | 235 kts | 318° |
| 2026-04-19 10:31 | 42.15888 | -70.75401 | 21753 ft | 236 kts | 318° |
| 2026-04-19 10:31 | 42.17160 | -70.76818 | 22083 ft | 237 kts | 318° |
| 2026-04-19 10:31 | 42.18433 | -70.78237 | 22418 ft | 238 kts | 318° |
| 2026-04-19 10:32 | 42.19662 | -70.79705 | 22731 ft | 238 kts | 309° |
| 2026-04-19 10:32 | 42.20578 | -70.81547 | 23059 ft | 236 kts | 295° |
| 2026-04-19 10:32 | 42.20986 | -70.82945 | 23279 ft | 236 kts | 285° |
| 2026-04-19 10:32 | 42.21240 | -70.85708 | 23652 ft | 237 kts | 269° |
| 2026-04-19 10:33 | 42.21186 | -70.87929 | 23940 ft | 237 kts | 269° |
| 2026-04-19 10:33 | 42.21148 | -70.90162 | 24223 ft | 238 kts | 269° |
| 2026-04-19 10:33 | 42.21108 | -70.92397 | 24506 ft | 238 kts | 269° |
| 2026-04-19 10:33 | 42.21063 | -70.94603 | 24781 ft | 239 kts | 269° |
| 2026-04-19 10:34 | 42.21018 | -70.96846 | 25058 ft | 240 kts | 269° |
| 2026-04-19 10:34 | 42.20973 | -70.99095 | 25342 ft | 240 kts | 269° |
| 2026-04-19 10:34 | 42.20928 | -71.01344 | 25624 ft | 240 kts | 269° |
| 2026-04-19 10:34 | 42.20882 | -71.03604 | 25901 ft | 241 kts | 269° |
| 2026-04-19 10:35 | 42.20835 | -71.05872 | 26176 ft | 242 kts | 269° |
| 2026-04-19 10:35 | 42.20787 | -71.08143 | 26462 ft | 242 kts | 269° |
| 2026-04-19 10:35 | 42.20739 | -71.10421 | 26748 ft | 243 kts | 270° |
| 2026-04-19 10:35 | 42.20691 | -71.12706 | 27024 ft | 244 kts | 270° |
| 2026-04-19 10:36 | 42.20643 | -71.14997 | 27308 ft | 245 kts | 270° |
| 2026-04-19 10:36 | 42.20593 | -71.17297 | 27591 ft | 245 kts | 270° |
| 2026-04-19 10:36 | 42.20543 | -71.19568 | 27869 ft | 246 kts | 270° |
| 2026-04-19 10:36 | 42.20493 | -71.21918 | 27912 ft | 255 kts | 270° |
| 2026-04-19 10:37 | 42.20441 | -71.24353 | 27920 ft | 264 kts | 270° |
| 2026-04-19 10:37 | 42.20386 | -71.26862 | 27926 ft | 270 kts | 270° |
| 2026-04-19 10:37 | 42.20329 | -71.29420 | 27927 ft | 275 kts | 270° |
| 2026-04-19 10:37 | 42.20289 | -71.31139 | 27927 ft | 278 kts | 270° |
| 2026-04-19 10:38 | 42.20208 | -71.34633 | 27930 ft | 283 kts | 270° |
| 2026-04-19 10:38 | 42.20167 | -71.36429 | 27931 ft | 284 kts | 270° |
| 2026-04-19 10:38 | 42.20104 | -71.39106 | 27931 ft | 287 kts | 270° |
| 2026-04-19 10:38 | 42.20041 | -71.41762 | 27931 ft | 288 kts | 270° |
| 2026-04-19 10:39 | 42.19976 | -71.44471 | 27930 ft | 289 kts | 270° |
| 2026-04-19 10:39 | 42.19910 | -71.47197 | 27931 ft | 290 kts | 270° |
| 2026-04-19 10:39 | 42.19843 | -71.49923 | 27931 ft | 291 kts | 270° |
| 2026-04-19 10:39 | 42.19775 | -71.52660 | 27933 ft | 292 kts | 270° |
| 2026-04-19 10:40 | 42.19707 | -71.55398 | 27912 ft | 292 kts | 270° |
| 2026-04-19 10:40 | 42.19639 | -71.58135 | 27906 ft | 292 kts | 270° |
| 2026-04-19 10:40 | 42.19570 | -71.60876 | 27902 ft | 293 kts | 270° |
| 2026-04-19 10:40 | 42.19499 | -71.63626 | 27894 ft | 293 kts | 270° |
| 2026-04-19 10:41 | 42.19428 | -71.66374 | 27890 ft | 293 kts | 270° |
| 2026-04-19 10:41 | 42.19355 | -71.69125 | 27888 ft | 294 kts | 270° |
| 2026-04-19 10:41 | 42.19283 | -71.71882 | 27881 ft | 294 kts | 270° |
| 2026-04-19 10:41 | 42.19211 | -71.74599 | 27875 ft | 294 kts | 270° |
| 2026-04-19 10:42 | 42.19136 | -71.77358 | 27872 ft | 294 kts | 270° |
| 2026-04-19 10:42 | 42.19061 | -71.80130 | 27868 ft | 294 kts | 270° |
| 2026-04-19 10:42 | 42.18987 | -71.82885 | 27871 ft | 294 kts | 270° |
| 2026-04-19 10:42 | 42.18911 | -71.85652 | 27862 ft | 294 kts | 270° |
| 2026-04-19 10:43 | 42.18834 | -71.88409 | 27860 ft | 294 kts | 270° |
| 2026-04-19 10:43 | 42.18758 | -71.91136 | 27863 ft | 294 kts | 270° |
| 2026-04-19 10:43 | 42.18679 | -71.93925 | 27861 ft | 294 kts | 270° |
| 2026-04-19 10:43 | 42.18600 | -71.96683 | 27863 ft | 294 kts | 270° |
| 2026-04-19 10:44 | 42.18520 | -71.99441 | 27868 ft | 294 kts | 270° |
| 2026-04-19 10:44 | 42.18442 | -72.02169 | 27869 ft | 294 kts | 270° |
| 2026-04-19 10:44 | 42.18361 | -72.04937 | 27872 ft | 294 kts | 270° |
| 2026-04-19 10:44 | 42.18279 | -72.07703 | 27874 ft | 294 kts | 270° |
| 2026-04-19 10:45 | 42.18197 | -72.10456 | 27874 ft | 295 kts | 270° |
| 2026-04-19 10:45 | 42.18115 | -72.13220 | 27879 ft | 295 kts | 270° |
| 2026-04-19 10:45 | 42.18031 | -72.15977 | 27876 ft | 294 kts | 270° |
| 2026-04-19 10:45 | 42.17948 | -72.18742 | 27880 ft | 295 kts | 270° |
| 2026-04-19 10:46 | 42.17864 | -72.21469 | 27879 ft | 295 kts | 270° |
| 2026-04-19 10:46 | 42.17778 | -72.24232 | 27869 ft | 295 kts | 270° |
| 2026-04-19 10:46 | 42.17692 | -72.26992 | 27867 ft | 295 kts | 270° |
| 2026-04-19 10:46 | 42.17606 | -72.29758 | 27864 ft | 295 kts | 270° |
| 2026-04-19 10:47 | 42.17518 | -72.32511 | 27859 ft | 295 kts | 269° |
| 2026-04-19 10:47 | 42.17430 | -72.35276 | 27858 ft | 295 kts | 269° |
| 2026-04-19 10:47 | 42.17341 | -72.38036 | 27855 ft | 295 kts | 269° |
| 2026-04-19 10:47 | 42.17252 | -72.40793 | 27855 ft | 295 kts | 270° |
| 2026-04-19 10:48 | 42.17162 | -72.43554 | 27854 ft | 295 kts | 269° |
| 2026-04-19 10:48 | 42.17071 | -72.46311 | 27854 ft | 295 kts | 269° |
| 2026-04-19 10:48 | 42.16980 | -72.49082 | 27852 ft | 295 kts | 269° |
| 2026-04-19 10:48 | 42.16888 | -72.51838 | 27853 ft | 294 kts | 270° |
| 2026-04-19 10:49 | 42.16797 | -72.54560 | 27852 ft | 295 kts | 269° |
| 2026-04-19 10:49 | 42.16703 | -72.57326 | 27853 ft | 295 kts | 269° |
| 2026-04-19 10:49 | 42.16609 | -72.60080 | 27851 ft | 294 kts | 269° |
| 2026-04-19 10:49 | 42.16515 | -72.62841 | 27883 ft | 294 kts | 269° |
| 2026-04-19 10:50 | 42.16420 | -72.65600 | 27882 ft | 294 kts | 269° |
| 2026-04-19 10:50 | 42.16299 | -72.68357 | 27881 ft | 295 kts | 266° |
| 2026-04-19 10:50 | 42.15902 | -72.71083 | 27864 ft | 296 kts | 257° |
| 2026-04-19 10:50 | 42.15210 | -72.73676 | 27860 ft | 299 kts | 249° |
| 2026-04-19 10:51 | 42.14215 | -72.76153 | 27862 ft | 301 kts | 243° |
| 2026-04-19 10:51 | 42.13131 | -72.78572 | 27865 ft | 301 kts | 243° |
| 2026-04-19 10:51 | 42.12067 | -72.80998 | 27863 ft | 301 kts | 243° |
| 2026-04-19 10:51 | 42.10999 | -72.83423 | 27863 ft | 301 kts | 243° |
| 2026-04-19 10:52 | 42.09923 | -72.85845 | 27862 ft | 301 kts | 243° |
| 2026-04-19 10:52 | 42.08847 | -72.88269 | 27864 ft | 301 kts | 243° |
| 2026-04-19 10:52 | 42.07773 | -72.90690 | 27868 ft | 301 kts | 243° |
| 2026-04-19 10:52 | 42.06698 | -72.93112 | 27870 ft | 301 kts | 243° |
| 2026-04-19 10:53 | 42.05623 | -72.95532 | 27867 ft | 302 kts | 243° |
| 2026-04-19 10:53 | 42.04558 | -72.97925 | 27868 ft | 302 kts | 243° |
| 2026-04-19 10:53 | 42.03468 | -73.00374 | 27867 ft | 301 kts | 243° |
| 2026-04-19 10:53 | 42.02402 | -73.02767 | 27869 ft | 302 kts | 243° |
| 2026-04-19 10:54 | 42.01321 | -73.05193 | 27870 ft | 302 kts | 243° |
| 2026-04-19 10:54 | 42.00239 | -73.07617 | 27870 ft | 302 kts | 243° |
| 2026-04-19 10:54 | 41.99157 | -73.10041 | 27867 ft | 302 kts | 243° |
| 2026-04-19 10:54 | 41.98074 | -73.12462 | 27865 ft | 302 kts | 243° |
| 2026-04-19 10:55 | 41.96992 | -73.14882 | 27865 ft | 302 kts | 243° |
| 2026-04-19 10:55 | 41.95924 | -73.17269 | 27863 ft | 302 kts | 243° |
| 2026-04-19 10:55 | 41.94838 | -73.19690 | 27858 ft | 302 kts | 243° |
| 2026-04-19 10:55 | 41.93755 | -73.22105 | 27863 ft | 302 kts | 243° |
| 2026-04-19 10:56 | 41.92672 | -73.24519 | 27862 ft | 302 kts | 243° |
| 2026-04-19 10:56 | 41.91589 | -73.26933 | 27862 ft | 302 kts | 243° |
| 2026-04-19 10:56 | 41.90502 | -73.29351 | 27858 ft | 302 kts | 243° |
| 2026-04-19 10:56 | 41.89409 | -73.31779 | 27855 ft | 303 kts | 243° |
| 2026-04-19 10:57 | 41.88333 | -73.34171 | 27857 ft | 303 kts | 243° |
| 2026-04-19 10:57 | 41.87242 | -73.36600 | 27853 ft | 304 kts | 243° |
| 2026-04-19 10:57 | 41.86148 | -73.39032 | 27854 ft | 304 kts | 243° |
| 2026-04-19 10:57 | 41.85053 | -73.41460 | 27860 ft | 304 kts | 243° |
| 2026-04-19 10:58 | 41.83959 | -73.43886 | 27858 ft | 304 kts | 243° |
| 2026-04-19 10:58 | 41.82864 | -73.46317 | 27858 ft | 304 kts | 243° |
| 2026-04-19 10:58 | 41.81768 | -73.48744 | 27862 ft | 304 kts | 243° |
| 2026-04-19 10:58 | 41.80669 | -73.51174 | 27858 ft | 304 kts | 243° |
| 2026-04-19 10:59 | 41.79586 | -73.53569 | 27856 ft | 304 kts | 243° |
| 2026-04-19 10:59 | 41.78489 | -73.55994 | 27852 ft | 304 kts | 243° |
| 2026-04-19 10:59 | 41.77388 | -73.58424 | 27850 ft | 304 kts | 243° |
| 2026-04-19 10:59 | 41.76288 | -73.60850 | 27855 ft | 304 kts | 243° |
| 2026-04-19 11:00 | 41.75190 | -73.63269 | 27848 ft | 304 kts | 243° |
| 2026-04-19 11:00 | 41.74104 | -73.65662 | 27850 ft | 304 kts | 243° |
| 2026-04-19 11:00 | 41.73002 | -73.68088 | 27844 ft | 305 kts | 243° |
| 2026-04-19 11:00 | 41.71898 | -73.70516 | 27842 ft | 305 kts | 243° |
| 2026-04-19 11:01 | 41.70811 | -73.72904 | 27839 ft | 305 kts | 243° |
| 2026-04-19 11:01 | 41.69702 | -73.75338 | 27834 ft | 305 kts | 243° |
| 2026-04-19 11:01 | 41.68593 | -73.77768 | 27836 ft | 305 kts | 243° |
| 2026-04-19 11:01 | 41.67487 | -73.80194 | 27835 ft | 305 kts | 243° |
| 2026-04-19 11:02 | 41.66337 | -73.82544 | 27831 ft | 307 kts | 237° |
| 2026-04-19 11:02 | 41.64933 | -73.84725 | 27832 ft | 309 kts | 233° |
| 2026-04-19 11:02 | 41.63520 | -73.86896 | 27837 ft | 309 kts | 234° |
| 2026-04-19 11:02 | 41.62123 | -73.89068 | 27828 ft | 306 kts | 234° |
| 2026-04-19 11:03 | 41.60729 | -73.91216 | 27834 ft | 307 kts | 233° |
| 2026-04-19 11:03 | 41.59322 | -73.93369 | 27834 ft | 307 kts | 233° |
| 2026-04-19 11:03 | 41.57918 | -73.95524 | 27833 ft | 308 kts | 233° |
| 2026-04-19 11:03 | 41.56512 | -73.97688 | 27847 ft | 308 kts | 233° |
| 2026-04-19 11:04 | 41.55102 | -73.99851 | 27838 ft | 308 kts | 233° |
| 2026-04-19 11:04 | 41.53693 | -74.02009 | 27831 ft | 308 kts | 233° |
| 2026-04-19 11:04 | 41.52298 | -74.04146 | 27831 ft | 309 kts | 233° |
| 2026-04-19 11:04 | 41.50888 | -74.06304 | 27832 ft | 309 kts | 233° |
| 2026-04-19 11:05 | 41.49476 | -74.08466 | 27832 ft | 308 kts | 233° |
| 2026-04-19 11:05 | 41.48061 | -74.10627 | 27831 ft | 308 kts | 233° |
| 2026-04-19 11:05 | 41.46650 | -74.12782 | 27829 ft | 308 kts | 233° |
| 2026-04-19 11:05 | 41.45242 | -74.14932 | 27832 ft | 308 kts | 233° |
| 2026-04-19 11:06 | 41.43830 | -74.17087 | 27828 ft | 308 kts | 233° |
| 2026-04-19 11:06 | 41.42417 | -74.19240 | 27826 ft | 308 kts | 233° |
| 2026-04-19 11:06 | 41.41007 | -74.21385 | 27857 ft | 308 kts | 233° |
| 2026-04-19 11:06 | 41.39598 | -74.23531 | 27857 ft | 308 kts | 233° |
| 2026-04-19 11:07 | 41.38186 | -74.25679 | 27853 ft | 307 kts | 233° |
| 2026-04-19 11:07 | 41.36773 | -74.27826 | 27856 ft | 307 kts | 233° |
| 2026-04-19 11:07 | 41.35384 | -74.29934 | 27858 ft | 307 kts | 233° |
| 2026-04-19 11:07 | 41.33978 | -74.32069 | 27861 ft | 307 kts | 233° |
| 2026-04-19 11:08 | 41.32567 | -74.34209 | 27860 ft | 307 kts | 233° |
| 2026-04-19 11:08 | 41.31162 | -74.36338 | 27859 ft | 306 kts | 233° |
| 2026-04-19 11:08 | 41.29754 | -74.38470 | 27858 ft | 306 kts | 233° |
| 2026-04-19 11:08 | 41.28350 | -74.40595 | 27863 ft | 306 kts | 233° |
| 2026-04-19 11:09 | 41.26943 | -74.42722 | 27856 ft | 306 kts | 233° |
| 2026-04-19 11:09 | 41.25540 | -74.44842 | 27857 ft | 305 kts | 233° |
| 2026-04-19 11:09 | 41.24184 | -74.47011 | 27864 ft | 303 kts | 238° |
| 2026-04-19 11:09 | 41.22958 | -74.49292 | 27865 ft | 303 kts | 238° |
| 2026-04-19 11:10 | 41.21710 | -74.51548 | 27861 ft | 303 kts | 237° |
| 2026-04-19 11:10 | 41.20462 | -74.53798 | 27862 ft | 302 kts | 238° |
| 2026-04-19 11:10 | 41.19224 | -74.56054 | 27861 ft | 302 kts | 238° |
| 2026-04-19 11:10 | 41.17983 | -74.58316 | 27863 ft | 303 kts | 238° |
| 2026-04-19 11:11 | 41.16741 | -74.60571 | 27859 ft | 302 kts | 237° |
| 2026-04-19 11:11 | 41.15514 | -74.62793 | 27857 ft | 302 kts | 237° |
| 2026-04-19 11:11 | 41.14270 | -74.65048 | 27852 ft | 302 kts | 238° |
| 2026-04-19 11:11 | 41.13032 | -74.67292 | 27857 ft | 301 kts | 237° |
| 2026-04-19 11:12 | 41.11794 | -74.69534 | 27855 ft | 301 kts | 237° |
| 2026-04-19 11:12 | 41.10554 | -74.71776 | 27853 ft | 301 kts | 237° |
| 2026-04-19 11:12 | 41.09313 | -74.74021 | 27853 ft | 301 kts | 237° |
| 2026-04-19 11:12 | 41.08072 | -74.76263 | 27855 ft | 301 kts | 237° |
| 2026-04-19 11:13 | 41.06834 | -74.78497 | 27856 ft | 301 kts | 237° |
| 2026-04-19 11:13 | 41.05596 | -74.80730 | 27853 ft | 301 kts | 237° |
| 2026-04-19 11:13 | 41.04374 | -74.82932 | 27851 ft | 300 kts | 237° |
| 2026-04-19 11:13 | 41.03137 | -74.85160 | 27860 ft | 300 kts | 237° |
| 2026-04-19 11:14 | 41.01900 | -74.87386 | 27856 ft | 300 kts | 237° |
| 2026-04-19 11:14 | 41.00660 | -74.89618 | 27852 ft | 300 kts | 237° |
| 2026-04-19 11:14 | 40.99423 | -74.91841 | 27849 ft | 299 kts | 237° |
| 2026-04-19 11:14 | 40.98189 | -74.94056 | 27852 ft | 299 kts | 237° |
| 2026-04-19 11:15 | 40.96962 | -74.96287 | 27856 ft | 298 kts | 239° |
| 2026-04-19 11:15 | 40.95862 | -74.98593 | 27859 ft | 297 kts | 241° |
| 2026-04-19 11:15 | 40.94746 | -75.00902 | 27855 ft | 297 kts | 240° |
| 2026-04-19 11:15 | 40.93626 | -75.03197 | 27862 ft | 297 kts | 240° |
| 2026-04-19 11:16 | 40.92527 | -75.05466 | 27859 ft | 296 kts | 240° |
| 2026-04-19 11:16 | 40.91419 | -75.07762 | 27859 ft | 296 kts | 240° |
| 2026-04-19 11:16 | 40.90308 | -75.10055 | 27858 ft | 296 kts | 240° |
| 2026-04-19 11:16 | 40.89197 | -75.12341 | 27859 ft | 296 kts | 240° |
| 2026-04-19 11:17 | 40.88085 | -75.14631 | 27857 ft | 295 kts | 240° |
| 2026-04-19 11:17 | 40.86978 | -75.16911 | 27860 ft | 295 kts | 240° |
| 2026-04-19 11:17 | 40.85869 | -75.19192 | 27861 ft | 295 kts | 240° |
| 2026-04-19 11:17 | 40.84758 | -75.21475 | 27863 ft | 295 kts | 240° |
| 2026-04-19 11:18 | 40.83661 | -75.23728 | 27867 ft | 294 kts | 240° |
| 2026-04-19 11:18 | 40.82550 | -75.26007 | 27868 ft | 294 kts | 240° |
| 2026-04-19 11:18 | 40.81443 | -75.28278 | 27867 ft | 294 kts | 240° |
| 2026-04-19 11:18 | 40.80337 | -75.30546 | 27873 ft | 294 kts | 240° |
| 2026-04-19 11:19 | 40.79227 | -75.32816 | 27875 ft | 294 kts | 240° |
| 2026-04-19 11:19 | 40.78120 | -75.35082 | 27875 ft | 293 kts | 240° |
| 2026-04-19 11:19 | 40.77014 | -75.37345 | 27874 ft | 293 kts | 240° |
| 2026-04-19 11:19 | 40.76026 | -75.39687 | 27893 ft | 292 kts | 247° |
| 2026-04-19 11:20 | 40.75148 | -75.42098 | 27894 ft | 292 kts | 246° |
| 2026-04-19 11:20 | 40.74242 | -75.44492 | 27890 ft | 292 kts | 245° |
| 2026-04-19 11:20 | 40.73351 | -75.46861 | 27889 ft | 292 kts | 246° |
| 2026-04-19 11:20 | 40.72457 | -75.49268 | 27895 ft | 292 kts | 246° |
| 2026-04-19 11:21 | 40.71564 | -75.51669 | 27895 ft | 291 kts | 246° |
| 2026-04-19 11:21 | 40.70665 | -75.54069 | 27893 ft | 291 kts | 245° |
| 2026-04-19 11:21 | 40.69769 | -75.56461 | 27887 ft | 291 kts | 245° |
| 2026-04-19 11:22 | 40.67977 | -75.61250 | 27888 ft | 291 kts | 245° |
| 2026-04-19 11:22 | 40.67083 | -75.63634 | 27884 ft | 290 kts | 245° |
| 2026-04-19 11:22 | 40.66199 | -75.65989 | 27900 ft | 290 kts | 245° |
| 2026-04-19 11:22 | 40.65305 | -75.68369 | 27901 ft | 290 kts | 245° |
| 2026-04-19 11:23 | 40.64408 | -75.70755 | 27898 ft | 290 kts | 245° |
| 2026-04-19 11:23 | 40.63515 | -75.73130 | 27896 ft | 289 kts | 245° |
| 2026-04-19 11:23 | 40.62621 | -75.75507 | 27891 ft | 289 kts | 245° |
| 2026-04-19 11:23 | 40.61728 | -75.77875 | 27895 ft | 289 kts | 245° |
| 2026-04-19 11:24 | 40.60834 | -75.80243 | 27897 ft | 289 kts | 245° |
| 2026-04-19 11:24 | 40.59941 | -75.82610 | 27890 ft | 288 kts | 245° |
| 2026-04-19 11:24 | 40.59047 | -75.84970 | 27891 ft | 288 kts | 245° |
| 2026-04-19 11:24 | 40.58453 | -75.86534 | 27895 ft | 288 kts | 245° |
| 2026-04-19 11:25 | 40.57556 | -75.88892 | 27897 ft | 288 kts | 245° |
| 2026-04-19 11:25 | 40.56662 | -75.91244 | 27895 ft | 287 kts | 245° |
| 2026-04-19 11:25 | 40.55478 | -75.94358 | 27896 ft | 287 kts | 245° |
| 2026-04-19 11:25 | 40.54584 | -75.96706 | 27899 ft | 287 kts | 245° |
| 2026-04-19 11:26 | 40.53981 | -75.98290 | 27900 ft | 287 kts | 245° |
| 2026-04-19 11:26 | 40.53088 | -76.00633 | 27898 ft | 286 kts | 244° |
| 2026-04-19 11:26 | 40.52206 | -76.02945 | 27897 ft | 286 kts | 244° |
| 2026-04-19 11:26 | 40.51312 | -76.05284 | 27905 ft | 286 kts | 244° |
| 2026-04-19 11:27 | 40.50421 | -76.07618 | 27900 ft | 286 kts | 244° |
| 2026-04-19 11:27 | 40.49526 | -76.09956 | 27901 ft | 285 kts | 244° |
| 2026-04-19 11:27 | 40.48632 | -76.12290 | 27896 ft | 285 kts | 244° |
| 2026-04-19 11:27 | 40.47751 | -76.14593 | 27904 ft | 285 kts | 244° |
| 2026-04-19 11:28 | 40.46860 | -76.16919 | 27901 ft | 285 kts | 244° |
| 2026-04-19 11:28 | 40.45969 | -76.19239 | 27899 ft | 284 kts | 244° |
| 2026-04-19 11:28 | 40.45073 | -76.21573 | 27897 ft | 284 kts | 244° |
| 2026-04-19 11:28 | 40.44183 | -76.23890 | 27901 ft | 284 kts | 244° |
| 2026-04-19 11:29 | 40.43294 | -76.26200 | 27902 ft | 284 kts | 244° |
| 2026-04-19 11:29 | 40.42415 | -76.28485 | 27903 ft | 283 kts | 244° |
| 2026-04-19 11:29 | 40.41524 | -76.30798 | 27901 ft | 283 kts | 244° |
| 2026-04-19 11:29 | 40.40634 | -76.33105 | 27907 ft | 283 kts | 244° |
| 2026-04-19 11:30 | 40.39744 | -76.35412 | 27906 ft | 283 kts | 244° |
| 2026-04-19 11:30 | 40.38857 | -76.37710 | 27904 ft | 283 kts | 244° |
| 2026-04-19 11:30 | 40.37967 | -76.40015 | 27919 ft | 283 kts | 244° |
| 2026-04-19 11:30 | 40.37079 | -76.42312 | 27922 ft | 282 kts | 244° |
| 2026-04-19 11:31 | 40.36198 | -76.44589 | 27925 ft | 282 kts | 244° |
| 2026-04-19 11:31 | 40.35308 | -76.46887 | 27925 ft | 282 kts | 244° |
| 2026-04-19 11:31 | 40.34420 | -76.49176 | 27922 ft | 282 kts | 244° |
| 2026-04-19 11:31 | 40.33525 | -76.51458 | 27928 ft | 282 kts | 243° |
| 2026-04-19 11:32 | 40.32607 | -76.53732 | 27928 ft | 281 kts | 243° |
| 2026-04-19 11:32 | 40.31694 | -76.56003 | 27926 ft | 281 kts | 243° |
| 2026-04-19 11:32 | 40.30787 | -76.58274 | 27925 ft | 281 kts | 243° |
| 2026-04-19 11:32 | 40.29882 | -76.60538 | 27924 ft | 281 kts | 243° |
| 2026-04-19 11:33 | 40.28977 | -76.62799 | 27971 ft | 280 kts | 243° |
| 2026-04-19 11:33 | 40.28069 | -76.65061 | 27972 ft | 280 kts | 243° |
| 2026-04-19 11:33 | 40.27175 | -76.67291 | 27977 ft | 280 kts | 243° |
| 2026-04-19 11:33 | 40.26266 | -76.69555 | 27980 ft | 280 kts | 243° |
| 2026-04-19 11:34 | 40.25361 | -76.71806 | 27980 ft | 279 kts | 243° |
| 2026-04-19 11:34 | 40.24459 | -76.74051 | 27979 ft | 279 kts | 243° |
| 2026-04-19 11:34 | 40.23555 | -76.76298 | 27982 ft | 278 kts | 243° |
| 2026-04-19 11:34 | 40.22654 | -76.78537 | 27977 ft | 278 kts | 243° |
| 2026-04-19 11:35 | 40.21765 | -76.80743 | 27981 ft | 277 kts | 243° |
| 2026-04-19 11:35 | 40.20864 | -76.82975 | 27975 ft | 277 kts | 243° |
| 2026-04-19 11:35 | 40.19967 | -76.85198 | 27972 ft | 276 kts | 243° |
| 2026-04-19 11:35 | 40.19066 | -76.87426 | 27981 ft | 275 kts | 243° |
| 2026-04-19 11:36 | 40.18170 | -76.89647 | 27979 ft | 275 kts | 243° |
| 2026-04-19 11:36 | 40.17277 | -76.91853 | 27979 ft | 274 kts | 243° |
| 2026-04-19 11:36 | 40.16396 | -76.94030 | 27977 ft | 274 kts | 243° |
| 2026-04-19 11:36 | 40.15505 | -76.96230 | 27977 ft | 273 kts | 243° |
| 2026-04-19 11:37 | 40.14615 | -76.98425 | 27970 ft | 273 kts | 243° |
| 2026-04-19 11:37 | 40.13726 | -77.00617 | 27969 ft | 272 kts | 243° |
| 2026-04-19 11:37 | 40.12847 | -77.02783 | 27964 ft | 271 kts | 243° |
| 2026-04-19 11:37 | 40.11963 | -77.04958 | 27968 ft | 271 kts | 243° |
| 2026-04-19 11:38 | 40.11079 | -77.07130 | 27962 ft | 270 kts | 243° |
| 2026-04-19 11:38 | 40.10195 | -77.09303 | 27961 ft | 270 kts | 242° |
| 2026-04-19 11:38 | 40.09314 | -77.11469 | 27955 ft | 269 kts | 242° |
| 2026-04-19 11:38 | 40.08436 | -77.13624 | 27957 ft | 269 kts | 242° |
| 2026-04-19 11:39 | 40.07555 | -77.15786 | 27958 ft | 269 kts | 242° |
| 2026-04-19 11:39 | 40.06677 | -77.17935 | 27959 ft | 268 kts | 242° |
| 2026-04-19 11:39 | 40.05800 | -77.20084 | 27955 ft | 268 kts | 242° |
| 2026-04-19 11:39 | 40.04934 | -77.22206 | 27960 ft | 267 kts | 242° |
| 2026-04-19 11:40 | 40.04056 | -77.24353 | 27958 ft | 267 kts | 242° |
| 2026-04-19 11:40 | 40.03183 | -77.26486 | 27955 ft | 267 kts | 242° |
| 2026-04-19 11:40 | 40.02306 | -77.28627 | 27951 ft | 266 kts | 242° |
| 2026-04-19 11:40 | 40.01433 | -77.30757 | 27962 ft | 266 kts | 242° |
| 2026-04-19 11:41 | 40.00565 | -77.32874 | 27958 ft | 266 kts | 242° |
| 2026-04-19 11:41 | 39.99699 | -77.34986 | 27961 ft | 265 kts | 242° |
| 2026-04-19 11:41 | 39.98829 | -77.37106 | 27959 ft | 265 kts | 242° |
| 2026-04-19 11:41 | 39.97959 | -77.39222 | 27965 ft | 264 kts | 242° |
| 2026-04-19 11:42 | 39.97132 | -77.41355 | 27966 ft | 264 kts | 246° |
| 2026-04-19 11:42 | 39.96495 | -77.43597 | 27972 ft | 264 kts | 251° |
| 2026-04-19 11:42 | 39.96050 | -77.45926 | 27975 ft | 265 kts | 256° |
| 2026-04-19 11:42 | 39.95807 | -77.48324 | 27977 ft | 267 kts | 262° |
| 2026-04-19 11:43 | 39.95776 | -77.50759 | 27981 ft | 270 kts | 267° |
| 2026-04-19 11:43 | 39.95863 | -77.53203 | 27979 ft | 270 kts | 267° |
| 2026-04-19 11:43 | 39.95932 | -77.55648 | 27980 ft | 269 kts | 267° |
| 2026-04-19 11:43 | 39.96005 | -77.58089 | 27984 ft | 269 kts | 267° |
| 2026-04-19 11:44 | 39.96084 | -77.60500 | 27987 ft | 269 kts | 267° |
| 2026-04-19 11:44 | 39.96161 | -77.62937 | 27986 ft | 269 kts | 266° |
| 2026-04-19 11:44 | 39.96236 | -77.65373 | 27986 ft | 268 kts | 266° |
| 2026-04-19 11:44 | 39.96311 | -77.67800 | 27986 ft | 268 kts | 266° |
| 2026-04-19 11:45 | 39.96386 | -77.70234 | 27992 ft | 268 kts | 266° |
| 2026-04-19 11:45 | 39.96459 | -77.72653 | 27990 ft | 268 kts | 266° |
| 2026-04-19 11:45 | 39.96533 | -77.75082 | 27991 ft | 267 kts | 266° |
| 2026-04-19 11:45 | 39.96604 | -77.77476 | 27990 ft | 267 kts | 266° |
| 2026-04-19 11:46 | 39.96677 | -77.79924 | 27993 ft | 267 kts | 266° |
| 2026-04-19 11:46 | 39.96749 | -77.82314 | 27995 ft | 266 kts | 266° |
| 2026-04-19 11:46 | 39.96819 | -77.84731 | 27991 ft | 267 kts | 266° |
| 2026-04-19 11:46 | 39.96890 | -77.87148 | 27991 ft | 266 kts | 265° |
| 2026-04-19 11:47 | 39.96959 | -77.89558 | 27997 ft | 266 kts | 265° |
| 2026-04-19 11:47 | 39.97029 | -77.91972 | 27994 ft | 266 kts | 265° |
| 2026-04-19 11:47 | 39.97098 | -77.94381 | 27997 ft | 266 kts | 265° |
| 2026-04-19 11:47 | 39.97166 | -77.96787 | 27996 ft | 266 kts | 265° |
| 2026-04-19 11:48 | 39.97233 | -77.99160 | 27994 ft | 265 kts | 265° |
| 2026-04-19 11:48 | 39.97300 | -78.01566 | 28000 ft | 264 kts | 265° |
| 2026-04-19 11:48 | 39.97365 | -78.03952 | 28001 ft | 263 kts | 265° |
| 2026-04-19 11:48 | 39.97433 | -78.06336 | 28000 ft | 263 kts | 265° |
| 2026-04-19 11:49 | 39.97499 | -78.08723 | 28006 ft | 262 kts | 264° |
| 2026-04-19 11:49 | 39.97562 | -78.11108 | 28011 ft | 262 kts | 264° |
| 2026-04-19 11:49 | 39.97626 | -78.13473 | 28010 ft | 261 kts | 264° |
| 2026-04-19 11:49 | 39.97689 | -78.15837 | 28011 ft | 261 kts | 264° |
| 2026-04-19 11:50 | 39.97751 | -78.18169 | 28015 ft | 260 kts | 264° |
| 2026-04-19 11:50 | 39.97813 | -78.20529 | 28020 ft | 260 kts | 264° |
| 2026-04-19 11:50 | 39.97874 | -78.22880 | 28021 ft | 259 kts | 264° |
| 2026-04-19 11:50 | 39.97935 | -78.25236 | 28026 ft | 259 kts | 264° |
| 2026-04-19 11:51 | 39.97995 | -78.27575 | 28029 ft | 258 kts | 264° |
| 2026-04-19 11:51 | 39.98056 | -78.29918 | 28027 ft | 257 kts | 264° |
| 2026-04-19 11:51 | 39.98114 | -78.32250 | 28033 ft | 257 kts | 264° |
| 2026-04-19 11:51 | 39.98172 | -78.34571 | 28031 ft | 256 kts | 263° |
| 2026-04-19 11:52 | 39.98230 | -78.36867 | 28036 ft | 255 kts | 263° |
| 2026-04-19 11:52 | 39.98288 | -78.39182 | 28037 ft | 255 kts | 263° |
| 2026-04-19 11:52 | 39.98344 | -78.41492 | 28041 ft | 254 kts | 263° |
| 2026-04-19 11:52 | 39.98400 | -78.43799 | 28041 ft | 254 kts | 263° |
| 2026-04-19 11:53 | 39.98456 | -78.46087 | 28043 ft | 253 kts | 263° |
| 2026-04-19 11:53 | 39.98509 | -78.48377 | 28043 ft | 252 kts | 263° |
| 2026-04-19 11:53 | 39.98564 | -78.50653 | 28041 ft | 251 kts | 263° |
| 2026-04-19 11:53 | 39.98618 | -78.52933 | 28044 ft | 251 kts | 263° |
| 2026-04-19 11:54 | 39.98671 | -78.55173 | 28041 ft | 250 kts | 263° |
| 2026-04-19 11:54 | 39.98723 | -78.57440 | 28040 ft | 249 kts | 263° |
| 2026-04-19 11:54 | 39.98774 | -78.59691 | 28041 ft | 248 kts | 262° |
| 2026-04-19 11:54 | 39.98826 | -78.61941 | 28037 ft | 248 kts | 262° |
| 2026-04-19 11:55 | 39.98876 | -78.64184 | 28038 ft | 247 kts | 262° |
| 2026-04-19 11:55 | 39.98927 | -78.66425 | 28036 ft | 246 kts | 262° |
| 2026-04-19 11:55 | 39.98976 | -78.68651 | 28036 ft | 245 kts | 262° |
| 2026-04-19 11:55 | 39.99026 | -78.70877 | 28031 ft | 245 kts | 261° |
| 2026-04-19 11:56 | 39.99074 | -78.73092 | 28032 ft | 243 kts | 261° |
| 2026-04-19 11:56 | 39.99121 | -78.75287 | 28030 ft | 241 kts | 261° |
| 2026-04-19 11:56 | 39.99167 | -78.77434 | 28029 ft | 240 kts | 261° |
| 2026-04-19 11:56 | 39.99212 | -78.79612 | 28024 ft | 240 kts | 261° |
| 2026-04-19 11:57 | 39.99259 | -78.81787 | 28026 ft | 238 kts | 260° |
| 2026-04-19 11:57 | 39.99304 | -78.83935 | 28022 ft | 237 kts | 260° |
| 2026-04-19 11:57 | 39.99348 | -78.86078 | 28022 ft | 236 kts | 260° |
| 2026-04-19 11:57 | 39.99391 | -78.88220 | 28021 ft | 235 kts | 260° |
| 2026-04-19 11:58 | 39.99434 | -78.90358 | 28022 ft | 235 kts | 260° |
| 2026-04-19 11:58 | 39.99477 | -78.92454 | 28022 ft | 234 kts | 260° |
| 2026-04-19 11:58 | 39.99518 | -78.94580 | 28015 ft | 234 kts | 260° |
| 2026-04-19 11:58 | 39.99560 | -78.96704 | 28020 ft | 234 kts | 260° |
| 2026-04-19 11:59 | 39.99602 | -78.98819 | 28022 ft | 233 kts | 260° |
| 2026-04-19 11:59 | 39.99644 | -79.00935 | 28018 ft | 233 kts | 259° |
| 2026-04-19 11:59 | 39.99683 | -79.03046 | 28019 ft | 233 kts | 259° |
| 2026-04-19 11:59 | 39.99723 | -79.05164 | 28022 ft | 233 kts | 259° |
| 2026-04-19 12:00 | 39.99763 | -79.07246 | 28021 ft | 232 kts | 259° |
| 2026-04-19 12:00 | 39.99803 | -79.09379 | 28022 ft | 232 kts | 259° |
| 2026-04-19 12:00 | 39.99841 | -79.11452 | 28025 ft | 232 kts | 259° |
| 2026-04-19 12:00 | 39.99880 | -79.13523 | 28025 ft | 231 kts | 259° |
| 2026-04-19 12:01 | 39.99917 | -79.15610 | 28029 ft | 230 kts | 259° |
| 2026-04-19 12:01 | 39.99954 | -79.17700 | 28032 ft | 230 kts | 259° |
| 2026-04-19 12:01 | 39.99992 | -79.19780 | 28039 ft | 230 kts | 259° |
| 2026-04-19 12:01 | 40.00028 | -79.21866 | 28045 ft | 229 kts | 259° |
| 2026-04-19 12:02 | 40.00064 | -79.23946 | 28037 ft | 230 kts | 259° |
| 2026-04-19 12:02 | 40.00100 | -79.26032 | 28045 ft | 229 kts | 259° |
| 2026-04-19 12:02 | 40.00135 | -79.28083 | 28046 ft | 229 kts | 258° |
| 2026-04-19 12:02 | 40.00171 | -79.30152 | 28046 ft | 228 kts | 258° |
| 2026-04-19 12:03 | 40.00203 | -79.32216 | 28050 ft | 227 kts | 258° |
| 2026-04-19 12:03 | 40.00236 | -79.34272 | 28056 ft | 227 kts | 259° |
| 2026-04-19 12:03 | 40.00274 | -79.36339 | 28067 ft | 227 kts | 258° |
| 2026-04-19 12:03 | 40.00306 | -79.38404 | 28072 ft | 228 kts | 258° |
| 2026-04-19 12:04 | 40.00338 | -79.40468 | 28079 ft | 228 kts | 258° |
| 2026-04-19 12:04 | 40.00372 | -79.42530 | 28082 ft | 227 kts | 258° |
| 2026-04-19 12:04 | 40.00404 | -79.44591 | 28086 ft | 227 kts | 258° |
| 2026-04-19 12:04 | 40.00435 | -79.46646 | 28093 ft | 226 kts | 258° |
| 2026-04-19 12:05 | 40.00466 | -79.48674 | 28099 ft | 226 kts | 258° |
| 2026-04-19 12:05 | 40.00496 | -79.50718 | 28102 ft | 225 kts | 258° |
| 2026-04-19 12:05 | 40.00528 | -79.52764 | 28106 ft | 225 kts | 258° |
| 2026-04-19 12:05 | 40.00558 | -79.54801 | 28103 ft | 225 kts | 258° |
| 2026-04-19 12:06 | 40.00587 | -79.56842 | 28107 ft | 224 kts | 258° |
| 2026-04-19 12:06 | 40.00616 | -79.58886 | 28111 ft | 225 kts | 258° |
| 2026-04-19 12:06 | 40.00646 | -79.60920 | 28109 ft | 224 kts | 258° |
| 2026-04-19 12:06 | 40.00674 | -79.62960 | 28109 ft | 224 kts | 258° |
| 2026-04-19 12:07 | 40.00701 | -79.64985 | 28110 ft | 224 kts | 258° |
| 2026-04-19 12:07 | 40.00730 | -79.67016 | 28110 ft | 223 kts | 258° |
| 2026-04-19 12:07 | 40.00756 | -79.69014 | 28109 ft | 223 kts | 258° |
| 2026-04-19 12:07 | 40.00780 | -79.71031 | 28110 ft | 222 kts | 257° |
| 2026-04-19 12:08 | 40.00807 | -79.73049 | 28110 ft | 223 kts | 258° |
| 2026-04-19 12:08 | 40.00838 | -79.75061 | 28111 ft | 222 kts | 258° |
| 2026-04-19 12:08 | 40.00862 | -79.77072 | 28110 ft | 222 kts | 258° |
| 2026-04-19 12:08 | 40.00886 | -79.79085 | 28107 ft | 222 kts | 258° |
| 2026-04-19 12:09 | 40.00911 | -79.81103 | 28105 ft | 222 kts | 258° |
| 2026-04-19 12:09 | 40.00937 | -79.83118 | 28108 ft | 222 kts | 258° |
| 2026-04-19 12:09 | 40.00960 | -79.85131 | 28105 ft | 221 kts | 258° |
| 2026-04-19 12:09 | 40.00984 | -79.87134 | 28107 ft | 221 kts | 258° |
| 2026-04-19 12:10 | 40.01007 | -79.89118 | 28102 ft | 221 kts | 258° |
| 2026-04-19 12:10 | 40.01031 | -79.91120 | 28104 ft | 220 kts | 257° |
| 2026-04-19 12:10 | 40.01054 | -79.93115 | 28101 ft | 220 kts | 258° |
| 2026-04-19 12:10 | 40.01075 | -79.95109 | 28104 ft | 220 kts | 257° |
| 2026-04-19 12:11 | 40.01098 | -79.97111 | 28098 ft | 220 kts | 258° |
| 2026-04-19 12:11 | 40.01120 | -79.99112 | 28101 ft | 220 kts | 258° |
| 2026-04-19 12:11 | 40.01141 | -80.01084 | 28123 ft | 219 kts | 257° |
| 2026-04-19 12:11 | 40.01162 | -80.03075 | 28130 ft | 219 kts | 257° |
| 2026-04-19 12:12 | 40.01182 | -80.05064 | 28134 ft | 219 kts | 257° |
| 2026-04-19 12:12 | 40.01203 | -80.07050 | 28132 ft | 219 kts | 257° |
| 2026-04-19 12:12 | 40.01223 | -80.09041 | 28136 ft | 219 kts | 257° |
| 2026-04-19 12:12 | 40.01242 | -80.11024 | 28141 ft | 219 kts | 257° |
| 2026-04-19 12:13 | 40.01261 | -80.13006 | 28143 ft | 218 kts | 257° |
| 2026-04-19 12:13 | 40.01281 | -80.14985 | 28145 ft | 217 kts | 257° |
| 2026-04-19 12:13 | 40.01299 | -80.16955 | 28153 ft | 217 kts | 257° |
| 2026-04-19 12:13 | 40.01316 | -80.18896 | 28147 ft | 217 kts | 257° |
| 2026-04-19 12:14 | 40.01334 | -80.20858 | 28150 ft | 216 kts | 257° |
| 2026-04-19 12:14 | 40.01351 | -80.22819 | 28148 ft | 216 kts | 257° |
| 2026-04-19 12:14 | 40.01363 | -80.24780 | 28156 ft | 216 kts | 258° |
| 2026-04-19 12:14 | 40.01388 | -80.26745 | 28150 ft | 216 kts | 257° |
| 2026-04-19 12:15 | 40.01400 | -80.28042 | 28151 ft | 215 kts | 257° |
| 2026-04-19 12:15 | 40.01413 | -80.29995 | 28153 ft | 215 kts | 257° |
| 2026-04-19 12:15 | 40.01427 | -80.31944 | 28150 ft | 216 kts | 257° |
| 2026-04-19 12:15 | 40.01443 | -80.33907 | 28156 ft | 216 kts | 257° |
| 2026-04-19 12:16 | 40.01458 | -80.35864 | 28152 ft | 216 kts | 257° |
| 2026-04-19 12:16 | 40.01473 | -80.37823 | 28144 ft | 216 kts | 257° |
| 2026-04-19 12:16 | 40.01488 | -80.39779 | 28153 ft | 215 kts | 257° |
| 2026-04-19 12:16 | 40.01502 | -80.41712 | 28151 ft | 216 kts | 257° |
| 2026-04-19 12:17 | 40.01515 | -80.43669 | 28152 ft | 215 kts | 257° |
| 2026-04-19 12:17 | 40.01529 | -80.45623 | 28153 ft | 215 kts | 257° |
| 2026-04-19 12:17 | 40.01542 | -80.47577 | 28150 ft | 215 kts | 257° |
| 2026-04-19 12:17 | 40.01555 | -80.49525 | 28145 ft | 214 kts | 257° |
| 2026-04-19 12:18 | 40.01567 | -80.51472 | 28141 ft | 214 kts | 257° |
| 2026-04-19 12:18 | 40.01579 | -80.53413 | 28141 ft | 214 kts | 257° |
| 2026-04-19 12:18 | 40.01591 | -80.55346 | 28138 ft | 213 kts | 257° |
| 2026-04-19 12:18 | 40.01602 | -80.57281 | 28135 ft | 213 kts | 257° |
| 2026-04-19 12:19 | 40.01613 | -80.59220 | 28141 ft | 214 kts | 257° |
| 2026-04-19 12:19 | 40.01624 | -80.61154 | 28139 ft | 213 kts | 257° |
| 2026-04-19 12:19 | 40.01635 | -80.63089 | 28138 ft | 213 kts | 257° |
| 2026-04-19 12:19 | 40.01651 | -80.64999 | 28140 ft | 213 kts | 257° |
| 2026-04-19 12:20 | 40.01653 | -80.66935 | 28143 ft | 213 kts | 257° |
| 2026-04-19 12:20 | 40.01660 | -80.68867 | 28135 ft | 213 kts | 257° |
| 2026-04-19 12:20 | 40.01671 | -80.70798 | 28141 ft | 213 kts | 257° |
| 2026-04-19 12:20 | 40.01681 | -80.72729 | 28143 ft | 213 kts | 257° |
| 2026-04-19 12:21 | 40.01690 | -80.74667 | 28139 ft | 213 kts | 257° |
| 2026-04-19 12:21 | 40.01698 | -80.76594 | 28137 ft | 213 kts | 257° |
| 2026-04-19 12:21 | 40.01706 | -80.78534 | 28139 ft | 213 kts | 257° |
| 2026-04-19 12:21 | 40.01714 | -80.80439 | 28143 ft | 212 kts | 257° |
| 2026-04-19 12:22 | 40.01714 | -80.82361 | 28139 ft | 211 kts | 256° |
| 2026-04-19 12:22 | 40.01685 | -80.84281 | 28139 ft | 211 kts | 256° |
| 2026-04-19 12:22 | 40.01660 | -80.86197 | 28143 ft | 211 kts | 256° |
| 2026-04-19 12:22 | 40.01636 | -80.88114 | 28141 ft | 211 kts | 256° |
| 2026-04-19 12:23 | 40.01612 | -80.90022 | 28137 ft | 211 kts | 256° |
| 2026-04-19 12:23 | 40.01587 | -80.91939 | 28141 ft | 211 kts | 256° |
| 2026-04-19 12:23 | 40.01560 | -80.93855 | 28143 ft | 210 kts | 256° |
| 2026-04-19 12:23 | 40.01535 | -80.95759 | 28144 ft | 210 kts | 256° |
| 2026-04-19 12:24 | 40.01509 | -80.97637 | 28147 ft | 210 kts | 256° |
| 2026-04-19 12:24 | 40.01482 | -80.99537 | 28150 ft | 209 kts | 256° |
| 2026-04-19 12:24 | 40.01456 | -81.01444 | 28147 ft | 209 kts | 256° |
| 2026-04-19 12:24 | 40.01428 | -81.03336 | 28149 ft | 209 kts | 256° |
| 2026-04-19 12:25 | 40.01401 | -81.05231 | 28148 ft | 209 kts | 256° |
| 2026-04-19 12:25 | 40.01373 | -81.07123 | 28149 ft | 209 kts | 256° |
| 2026-04-19 12:25 | 40.01346 | -81.09017 | 28149 ft | 208 kts | 256° |
| 2026-04-19 12:25 | 40.01318 | -81.10879 | 28145 ft | 208 kts | 256° |
| 2026-04-19 12:26 | 40.01290 | -81.12765 | 28152 ft | 208 kts | 256° |
| 2026-04-19 12:26 | 40.01260 | -81.14649 | 28154 ft | 208 kts | 256° |
| 2026-04-19 12:26 | 40.01231 | -81.16539 | 28161 ft | 207 kts | 256° |
| 2026-04-19 12:26 | 40.01203 | -81.18415 | 28160 ft | 207 kts | 256° |
| 2026-04-19 12:27 | 40.01173 | -81.20293 | 28161 ft | 206 kts | 256° |
| 2026-04-19 12:27 | 40.01143 | -81.22165 | 28170 ft | 207 kts | 256° |
| 2026-04-19 12:27 | 40.01112 | -81.24039 | 28164 ft | 207 kts | 256° |
| 2026-04-19 12:27 | 40.01077 | -81.25914 | 28169 ft | 206 kts | 256° |
| 2026-04-19 12:28 | 40.01007 | -81.29631 | 28172 ft | 206 kts | 256° |
| 2026-04-19 12:28 | 40.00972 | -81.31498 | 28179 ft | 206 kts | 256° |
| 2026-04-19 12:28 | 40.00936 | -81.33369 | 28178 ft | 205 kts | 256° |
| 2026-04-19 12:29 | 40.00900 | -81.35229 | 28180 ft | 205 kts | 256° |
| 2026-04-19 12:29 | 40.00863 | -81.37098 | 28185 ft | 205 kts | 256° |
| 2026-04-19 12:29 | 40.00827 | -81.38962 | 28186 ft | 205 kts | 256° |
| 2026-04-19 12:29 | 40.00791 | -81.40799 | 28180 ft | 205 kts | 256° |
| 2026-04-19 12:30 | 40.00754 | -81.42661 | 28185 ft | 205 kts | 256° |
| 2026-04-19 12:30 | 40.00716 | -81.44519 | 28191 ft | 205 kts | 256° |
| 2026-04-19 12:30 | 40.00679 | -81.46376 | 28193 ft | 205 kts | 256° |
| 2026-04-19 12:30 | 40.00641 | -81.48235 | 28192 ft | 205 kts | 256° |
| 2026-04-19 12:31 | 40.00603 | -81.50092 | 28192 ft | 204 kts | 256° |
| 2026-04-19 12:31 | 40.00564 | -81.51945 | 28191 ft | 205 kts | 256° |
| 2026-04-19 12:31 | 40.00526 | -81.53798 | 28191 ft | 204 kts | 256° |
| 2026-04-19 12:31 | 40.00489 | -81.55652 | 28193 ft | 204 kts | 256° |
| 2026-04-19 12:32 | 40.00452 | -81.57508 | 28194 ft | 204 kts | 256° |
| 2026-04-19 12:32 | 40.00416 | -81.59359 | 28195 ft | 204 kts | 256° |
| 2026-04-19 12:32 | 40.00379 | -81.61190 | 28194 ft | 204 kts | 256° |
| 2026-04-19 12:32 | 40.00341 | -81.63049 | 28193 ft | 204 kts | 256° |
| 2026-04-19 12:33 | 40.00303 | -81.64903 | 28192 ft | 204 kts | 256° |
| 2026-04-19 12:33 | 40.00265 | -81.66732 | 28194 ft | 204 kts | 256° |
| 2026-04-19 12:33 | 40.00226 | -81.68579 | 28192 ft | 204 kts | 256° |
| 2026-04-19 12:33 | 40.00186 | -81.70429 | 28189 ft | 204 kts | 256° |
| 2026-04-19 12:34 | 40.00148 | -81.72281 | 28189 ft | 204 kts | 256° |
| 2026-04-19 12:34 | 40.00110 | -81.74134 | 28189 ft | 204 kts | 256° |
| 2026-04-19 12:34 | 40.00069 | -81.75985 | 28180 ft | 204 kts | 256° |
| 2026-04-19 12:34 | 40.00029 | -81.77841 | 28182 ft | 204 kts | 256° |
| 2026-04-19 12:35 | 39.99989 | -81.79691 | 28186 ft | 204 kts | 256° |
| 2026-04-19 12:35 | 39.99948 | -81.81524 | 28185 ft | 204 kts | 256° |
| 2026-04-19 12:35 | 39.99908 | -81.83398 | 28185 ft | 204 kts | 256° |
| 2026-04-19 12:35 | 39.99868 | -81.85224 | 28179 ft | 204 kts | 256° |
| 2026-04-19 12:36 | 39.99824 | -81.87067 | 28184 ft | 203 kts | 256° |
| 2026-04-19 12:36 | 39.99783 | -81.88909 | 28185 ft | 203 kts | 256° |
| 2026-04-19 12:36 | 39.99741 | -81.90760 | 28181 ft | 203 kts | 256° |
| 2026-04-19 12:36 | 39.99699 | -81.92604 | 28182 ft | 204 kts | 256° |
| 2026-04-19 12:37 | 39.99656 | -81.94457 | 28184 ft | 204 kts | 256° |
| 2026-04-19 12:37 | 39.99614 | -81.96278 | 28185 ft | 203 kts | 256° |
| 2026-04-19 12:37 | 39.99571 | -81.98129 | 28182 ft | 204 kts | 256° |
| 2026-04-19 12:37 | 39.99527 | -81.99972 | 28181 ft | 204 kts | 256° |
| 2026-04-19 12:38 | 39.99483 | -82.01818 | 28186 ft | 203 kts | 256° |
| 2026-04-19 12:38 | 39.99439 | -82.03664 | 28182 ft | 204 kts | 256° |
| 2026-04-19 12:38 | 39.99395 | -82.05512 | 28180 ft | 204 kts | 256° |
| 2026-04-19 12:38 | 39.99350 | -82.07364 | 28180 ft | 204 kts | 256° |
| 2026-04-19 12:39 | 39.99303 | -82.09218 | 28183 ft | 204 kts | 256° |
| 2026-04-19 12:39 | 39.99259 | -82.11070 | 28181 ft | 204 kts | 256° |
| 2026-04-19 12:39 | 39.99215 | -82.12900 | 28177 ft | 204 kts | 256° |
| 2026-04-19 12:39 | 39.99168 | -82.14755 | 28180 ft | 204 kts | 256° |
| 2026-04-19 12:40 | 39.99122 | -82.16608 | 28181 ft | 205 kts | 256° |
| 2026-04-19 12:40 | 39.99075 | -82.18470 | 28185 ft | 205 kts | 256° |
| 2026-04-19 12:40 | 39.99028 | -82.20333 | 28186 ft | 205 kts | 256° |
| 2026-04-19 12:40 | 39.98980 | -82.22191 | 28188 ft | 205 kts | 256° |
| 2026-04-19 12:41 | 39.98932 | -82.24053 | 28187 ft | 206 kts | 256° |
| 2026-04-19 12:41 | 39.98884 | -82.25916 | 28191 ft | 206 kts | 256° |
| 2026-04-19 12:41 | 39.98836 | -82.27760 | 28187 ft | 206 kts | 256° |
| 2026-04-19 12:41 | 39.98788 | -82.29629 | 28191 ft | 206 kts | 256° |
| 2026-04-19 12:42 | 39.98740 | -82.31506 | 28191 ft | 206 kts | 256° |
| 2026-04-19 12:42 | 39.98690 | -82.33378 | 28189 ft | 206 kts | 256° |
| 2026-04-19 12:42 | 39.98639 | -82.35229 | 28192 ft | 207 kts | 256° |
| 2026-04-19 12:42 | 39.98589 | -82.37109 | 28194 ft | 207 kts | 256° |
| 2026-04-19 12:43 | 39.98539 | -82.38989 | 28193 ft | 208 kts | 256° |
| 2026-04-19 12:43 | 39.98488 | -82.40875 | 28188 ft | 208 kts | 256° |
| 2026-04-19 12:43 | 39.98438 | -82.42767 | 28192 ft | 208 kts | 256° |
| 2026-04-19 12:43 | 39.98385 | -82.44652 | 28191 ft | 208 kts | 256° |
| 2026-04-19 12:44 | 39.98332 | -82.46541 | 28193 ft | 209 kts | 256° |
| 2026-04-19 12:44 | 39.98280 | -82.48440 | 28194 ft | 209 kts | 256° |
| 2026-04-19 12:44 | 39.98228 | -82.50310 | 28195 ft | 209 kts | 257° |
| 2026-04-19 12:44 | 39.98175 | -82.52209 | 28191 ft | 209 kts | 257° |
| 2026-04-19 12:45 | 39.98121 | -82.54111 | 28195 ft | 210 kts | 257° |
| 2026-04-19 12:45 | 39.98067 | -82.56017 | 28194 ft | 210 kts | 257° |
| 2026-04-19 12:45 | 39.98013 | -82.57927 | 28196 ft | 210 kts | 257° |
| 2026-04-19 12:45 | 39.97958 | -82.59818 | 28194 ft | 211 kts | 257° |
| 2026-04-19 12:46 | 39.97903 | -82.61736 | 28193 ft | 211 kts | 257° |
| 2026-04-19 12:46 | 39.97847 | -82.63654 | 28196 ft | 212 kts | 257° |
| 2026-04-19 12:46 | 39.97791 | -82.65574 | 28193 ft | 212 kts | 257° |
| 2026-04-19 12:46 | 39.97735 | -82.67497 | 28194 ft | 212 kts | 257° |
| 2026-04-19 12:47 | 39.97678 | -82.69423 | 28207 ft | 212 kts | 257° |
| 2026-04-19 12:47 | 39.97621 | -82.71343 | 28212 ft | 212 kts | 257° |
| 2026-04-19 12:47 | 39.97564 | -82.73247 | 28209 ft | 213 kts | 257° |
| 2026-04-19 12:47 | 39.97506 | -82.75178 | 28208 ft | 213 kts | 257° |
| 2026-04-19 12:48 | 39.97447 | -82.77116 | 28210 ft | 214 kts | 257° |
| 2026-04-19 12:48 | 39.97388 | -82.79052 | 28212 ft | 214 kts | 257° |
| 2026-04-19 12:48 | 39.97329 | -82.80994 | 28214 ft | 215 kts | 258° |